createdAt,value
2019-03-03T00:00:48.182Z,56.68
2019-03-03T00:03:17.186Z,56.79
2019-03-03T00:05:49.424Z,56.74
2019-03-03T00:08:18.628Z,56.83
2019-03-03T00:10:47.792Z,56.86
2019-03-03T00:13:16.798Z,57.01
2019-03-03T00:15:45.807Z,57.05
2019-03-03T00:18:14.813Z,57.12
2019-03-03T00:20:43.965Z,57.14
2019-03-03T00:23:12.884Z,57.11
2019-03-03T00:26:00.920Z,57.13
2019-03-03T00:28:29.888Z,57.19
2019-03-03T00:30:58.887Z,57.30
2019-03-03T00:33:28.229Z,57.19
2019-03-03T00:35:57.152Z,57.21
2019-03-03T00:38:51.037Z,57.23
2019-03-03T00:41:37.820Z,57.15
2019-03-03T00:44:28.517Z,57.09
2019-03-03T00:47:31.468Z,57.12
2019-03-03T00:50:09.222Z,57.14
2019-03-03T00:52:55.853Z,57.13
2019-03-03T00:55:52.465Z,57.19
2019-03-03T00:58:39.195Z,57.16
2019-03-03T01:01:42.307Z,57.18
2019-03-03T01:04:21.887Z,57.21
2019-03-03T01:07:03.898Z,57.21
2019-03-03T01:10:06.840Z,57.21
2019-03-03T01:13:00.921Z,57.17
2019-03-03T01:16:07.235Z,57.15
2019-03-03T01:19:06.842Z,57.21
2019-03-03T01:21:41.689Z,57.17
2019-03-03T01:24:23.575Z,57.15
2019-03-03T01:26:52.634Z,57.16
2019-03-03T01:29:21.468Z,57.15
2019-03-03T01:31:50.309Z,57.13
2019-03-03T01:34:19.185Z,57.11
2019-03-03T01:36:48.068Z,57.10
2019-03-03T01:39:17.070Z,57.15
2019-03-03T01:41:46.090Z,57.08
2019-03-03T01:44:15.278Z,57.10
2019-03-03T01:46:44.315Z,57.10
2019-03-03T01:49:13.361Z,57.07
2019-03-03T01:51:42.428Z,57.08
2019-03-03T01:54:11.341Z,57.04
2019-03-03T01:56:40.360Z,57.04
2019-03-03T01:59:09.329Z,57.00
2019-03-03T02:01:38.380Z,57.00
2019-03-03T02:04:07.357Z,57.02
2019-03-03T02:06:36.242Z,57.04
2019-03-03T02:09:08.442Z,57.01
2019-03-03T02:11:37.444Z,57.02
2019-03-03T02:14:06.466Z,57.09
2019-03-03T02:16:35.579Z,57.11
2019-03-03T02:19:04.457Z,57.09
2019-03-03T02:21:33.313Z,57.08
2019-03-03T02:24:02.356Z,57.11
2019-03-03T02:26:31.479Z,57.03
2019-03-03T02:29:00.362Z,57.05
2019-03-03T02:31:29.356Z,57.06
2019-03-03T02:33:58.409Z,57.05
2019-03-03T02:36:27.387Z,57.07
2019-03-03T02:38:56.438Z,57.06
2019-03-03T02:41:25.335Z,57.04
2019-03-03T02:43:54.532Z,57.04
2019-03-03T02:46:23.353Z,57.05
2019-03-03T02:48:52.365Z,57.07
2019-03-03T02:51:21.513Z,57.07
2019-03-03T02:53:50.694Z,57.07
2019-03-03T02:56:19.788Z,57.04
2019-03-03T02:58:48.634Z,57.03
2019-03-03T03:01:21.817Z,57.07
2019-03-03T03:03:50.762Z,57.08
2019-03-03T03:06:41.106Z,57.05
2019-03-03T03:09:18.797Z,57.01
2019-03-03T03:12:31.594Z,57.04
2019-03-03T03:15:16.513Z,57.08
2019-03-03T03:17:56.892Z,57.11
2019-03-03T03:20:32.220Z,57.09
2019-03-03T03:23:13.957Z,57.09
2019-03-03T03:25:52.701Z,57.14
2019-03-03T03:28:27.925Z,57.17
2019-03-03T03:31:05.218Z,57.15
2019-03-03T03:33:52.995Z,57.12
2019-03-03T03:36:43.945Z,57.13
2019-03-03T03:39:27.249Z,57.13
2019-03-03T03:42:14.985Z,57.10
2019-03-03T03:44:52.730Z,57.10
2019-03-03T03:47:35.802Z,57.08
2019-03-03T03:50:12.271Z,57.08
2019-03-03T03:52:58.295Z,57.05
2019-03-03T03:55:38.299Z,57.09
2019-03-03T03:58:28.958Z,57.04
2019-03-03T04:01:34.790Z,57.03
2019-03-03T04:04:28.120Z,57.06
2019-03-03T04:07:14.142Z,57.04
2019-03-03T04:09:57.371Z,57.06
2019-03-03T04:12:41.136Z,57.08
2019-03-03T04:15:29.082Z,57.09
2019-03-03T04:18:16.887Z,57.10
2019-03-03T04:21:10.775Z,57.15
2019-03-03T04:23:54.293Z,57.09
2019-03-03T04:26:48.118Z,57.08
2019-03-03T04:29:39.417Z,57.08
2019-03-03T04:32:19.755Z,57.03
2019-03-03T04:34:57.304Z,57.05
2019-03-03T04:37:34.368Z,57.01
2019-03-03T04:40:14.345Z,57.04
2019-03-03T04:43:14.434Z,57.01
2019-03-03T04:45:55.781Z,57.01
2019-03-03T04:48:53.074Z,57.02
2019-03-03T04:51:30.656Z,57.04
2019-03-03T04:54:09.801Z,57.03
2019-03-03T04:56:56.412Z,57.04
2019-03-03T04:59:44.219Z,57.05
2019-03-03T05:02:50.506Z,57.04
2019-03-03T05:05:32.003Z,57.08
2019-03-03T05:08:21.049Z,57.04
2019-03-03T05:11:15.047Z,57.07
2019-03-03T05:13:51.579Z,57.09
2019-03-03T05:16:37.522Z,57.09
2019-03-03T05:19:21.338Z,57.09
2019-03-03T05:21:50.543Z,57.05
2019-03-03T05:24:19.587Z,57.09
2019-03-03T05:26:48.557Z,57.11
2019-03-03T05:29:17.359Z,57.13
2019-03-03T05:31:46.619Z,57.16
2019-03-03T05:34:15.713Z,57.16
2019-03-03T05:36:44.542Z,57.17
2019-03-03T05:39:13.353Z,57.16
2019-03-03T05:41:42.252Z,57.20
2019-03-03T05:44:11.134Z,57.19
2019-03-03T05:46:40.056Z,57.18
2019-03-03T05:49:09.078Z,57.19
2019-03-03T05:51:38.143Z,57.17
2019-03-03T05:54:07.116Z,57.18
2019-03-03T05:56:36.145Z,57.20
2019-03-03T05:59:05.124Z,57.18
2019-03-03T06:01:34.068Z,57.22
2019-03-03T06:04:02.852Z,57.22
2019-03-03T06:06:31.833Z,57.22
2019-03-03T06:09:00.823Z,57.20
2019-03-03T06:11:29.853Z,57.21
2019-03-03T06:13:58.999Z,57.21
2019-03-03T06:16:27.904Z,57.23
2019-03-03T06:18:56.860Z,57.21
2019-03-03T06:21:25.917Z,57.24
2019-03-03T06:23:54.856Z,57.26
2019-03-03T06:26:24.029Z,57.25
2019-03-03T06:28:52.970Z,57.28
2019-03-03T06:31:21.949Z,57.23
2019-03-03T06:33:50.873Z,57.24
2019-03-03T06:36:19.765Z,57.22
2019-03-03T06:38:48.889Z,57.21
2019-03-03T06:41:18.327Z,57.23
2019-03-03T06:43:47.457Z,57.22
2019-03-03T06:46:16.732Z,57.22
2019-03-03T06:48:45.607Z,57.24
2019-03-03T06:51:14.477Z,57.22
2019-03-03T06:53:43.316Z,57.25
2019-03-03T06:56:12.152Z,57.23
2019-03-03T06:58:41.141Z,57.25
2019-03-03T07:01:10.141Z,57.29
2019-03-03T07:03:39.150Z,57.28
2019-03-03T07:06:08.154Z,57.31
2019-03-03T07:08:37.226Z,57.30
2019-03-03T07:11:06.177Z,57.30
2019-03-03T07:13:35.238Z,57.31
2019-03-03T07:16:04.226Z,57.33
2019-03-03T07:18:33.239Z,57.35
2019-03-03T07:21:02.232Z,57.37
2019-03-03T07:23:31.208Z,57.39
2019-03-03T07:26:00.355Z,57.36
2019-03-03T07:28:29.203Z,57.38
2019-03-03T07:30:58.071Z,57.37
2019-03-03T07:33:30.539Z,57.38
2019-03-03T07:35:59.366Z,57.34
2019-03-03T07:38:28.393Z,57.37
2019-03-03T07:40:57.308Z,57.38
2019-03-03T07:43:26.352Z,57.38
2019-03-03T07:45:55.349Z,57.41
2019-03-03T07:48:24.353Z,57.44
2019-03-03T07:50:53.479Z,57.47
2019-03-03T07:53:22.465Z,57.48
2019-03-03T07:55:51.403Z,57.50
2019-03-03T07:58:20.449Z,57.57
2019-03-03T08:00:49.458Z,57.57
2019-03-03T08:03:18.507Z,57.57
2019-03-03T08:05:47.476Z,57.59
2019-03-03T08:08:16.547Z,57.61
2019-03-03T08:10:45.572Z,57.62
2019-03-03T08:13:14.785Z,57.64
2019-03-03T08:15:43.635Z,57.64
2019-03-03T08:18:12.505Z,57.65
2019-03-03T08:20:41.460Z,57.74
2019-03-03T08:23:10.621Z,57.72
2019-03-03T08:25:39.654Z,57.78
2019-03-03T08:28:08.686Z,57.80
2019-03-03T08:30:37.676Z,57.83
2019-03-03T08:33:06.685Z,57.87
2019-03-03T08:35:35.723Z,57.86
2019-03-03T08:38:04.774Z,57.91
2019-03-03T08:40:33.733Z,57.89
2019-03-03T08:43:24.410Z,57.84
2019-03-03T08:46:12.415Z,57.87
2019-03-03T08:49:02.965Z,57.91
2019-03-03T08:51:50.068Z,57.93
2019-03-03T08:54:57.832Z,57.96
2019-03-03T08:57:38.522Z,58.02
2019-03-03T09:00:26.034Z,58.00
2019-03-03T09:03:04.888Z,58.10
2019-03-03T09:05:55.908Z,58.15
2019-03-03T09:08:48.246Z,58.13
2019-03-03T09:11:44.074Z,58.12
2019-03-03T09:14:32.159Z,58.07
2019-03-03T09:17:26.309Z,58.11
2019-03-03T09:20:09.280Z,58.13
2019-03-03T09:22:49.501Z,58.14
2019-03-03T09:25:52.751Z,58.17
2019-03-03T09:28:42.578Z,58.19
2019-03-03T09:31:23.389Z,58.19
2019-03-03T09:34:11.308Z,58.24
2019-03-03T09:37:08.283Z,58.27
2019-03-03T09:39:56.129Z,58.26
2019-03-03T09:42:42.868Z,58.21
2019-03-03T09:45:34.605Z,58.24
2019-03-03T09:48:25.536Z,58.28
2019-03-03T09:51:19.552Z,58.27
2019-03-03T09:54:06.156Z,58.31
2019-03-03T09:57:06.357Z,58.30
2019-03-03T09:59:42.697Z,58.30
2019-03-03T10:02:20.137Z,58.35
2019-03-03T10:05:27.178Z,58.35
2019-03-03T10:08:20.743Z,58.38
2019-03-03T10:11:07.492Z,58.41
2019-03-03T10:13:53.896Z,58.37
2019-03-03T10:16:33.279Z,58.41
2019-03-03T10:19:19.045Z,58.38
2019-03-03T10:21:57.141Z,58.39
2019-03-03T10:24:44.991Z,58.48
2019-03-03T10:27:42.404Z,58.56
2019-03-03T10:30:30.778Z,58.64
2019-03-03T10:33:25.852Z,58.63
2019-03-03T10:36:13.802Z,58.58
2019-03-03T10:39:01.817Z,58.57
2019-03-03T10:41:55.350Z,58.62
2019-03-03T10:44:36.440Z,58.65
2019-03-03T10:47:20.461Z,58.66
2019-03-03T10:50:14.469Z,58.70
2019-03-03T10:52:53.395Z,58.68
2019-03-03T10:55:44.495Z,58.68
2019-03-03T10:58:23.501Z,58.66
2019-03-03T11:01:03.076Z,58.71
2019-03-03T11:03:57.070Z,58.83
2019-03-03T11:06:38.778Z,58.72
2019-03-03T11:09:32.645Z,58.78
2019-03-03T11:12:26.501Z,58.84
2019-03-03T11:15:19.446Z,58.93
2019-03-03T11:18:05.841Z,59.03
2019-03-03T11:21:05.638Z,59.07
2019-03-03T11:23:49.498Z,59.13
2019-03-03T11:26:29.072Z,59.06
2019-03-03T11:29:22.884Z,59.03
2019-03-03T11:32:19.776Z,59.06
2019-03-03T11:35:09.707Z,59.08
2019-03-03T11:37:52.737Z,59.23
2019-03-03T11:40:31.639Z,59.26
2019-03-03T11:43:18.445Z,59.21
2019-03-03T11:45:59.756Z,59.19
2019-03-03T11:48:46.496Z,59.26
2019-03-03T11:51:22.590Z,59.25
2019-03-03T11:54:04.201Z,59.20
2019-03-03T11:57:09.961Z,59.21
2019-03-03T12:00:01.082Z,59.19
2019-03-03T12:02:53.865Z,59.14
2019-03-03T12:05:27.790Z,58.94
2019-03-03T12:08:15.697Z,58.94
2019-03-03T12:11:06.339Z,59.25
2019-03-03T12:13:52.994Z,59.23
2019-03-03T12:16:34.926Z,59.25
2019-03-03T12:19:12.300Z,59.30
2019-03-03T12:22:02.980Z,59.31
2019-03-03T12:24:43.704Z,59.29
2019-03-03T12:27:29.968Z,59.22
2019-03-03T12:30:13.920Z,59.22
2019-03-03T12:33:07.516Z,59.24
2019-03-03T12:35:52.600Z,59.32
2019-03-03T12:38:58.634Z,59.30
2019-03-03T12:41:48.163Z,59.30
2019-03-03T12:44:39.141Z,59.39
2019-03-03T12:47:17.890Z,59.35
2019-03-03T12:49:58.514Z,59.43
2019-03-03T12:52:35.561Z,59.58
2019-03-03T12:55:21.563Z,59.48
2019-03-03T12:58:06.057Z,59.43
2019-03-03T13:00:45.971Z,59.41
2019-03-03T13:03:39.633Z,59.43
2019-03-03T13:06:13.742Z,59.39
2019-03-03T13:08:59.306Z,59.40
2019-03-03T13:11:40.091Z,59.41
2019-03-03T13:14:26.609Z,59.54
2019-03-03T13:17:29.813Z,59.59
2019-03-03T13:20:13.614Z,59.60
2019-03-03T13:23:10.396Z,59.75
2019-03-03T13:25:49.428Z,59.68
2019-03-03T13:28:41.081Z,59.61
2019-03-03T13:31:23.256Z,59.56
2019-03-03T13:34:10.253Z,59.54
2019-03-03T13:37:16.619Z,59.56
2019-03-03T13:39:55.446Z,59.58
2019-03-03T13:42:30.495Z,59.51
2019-03-03T13:44:59.538Z,59.50
2019-03-03T13:47:28.710Z,59.48
2019-03-03T13:49:57.618Z,59.51
2019-03-03T13:52:26.560Z,59.55
2019-03-03T13:54:55.608Z,59.56
2019-03-03T13:57:24.621Z,59.58
2019-03-03T13:59:53.674Z,59.57
2019-03-03T14:02:22.655Z,59.55
2019-03-03T14:04:51.648Z,59.50
2019-03-03T14:07:20.807Z,59.49
2019-03-03T14:09:50.061Z,59.46
2019-03-03T14:12:19.149Z,59.46
2019-03-03T14:14:48.378Z,59.45
2019-03-03T14:17:17.642Z,59.43
2019-03-03T14:19:46.740Z,59.43
2019-03-03T14:22:15.656Z,59.42
2019-03-03T14:24:44.756Z,59.42
2019-03-03T14:27:13.661Z,59.43
2019-03-03T14:29:42.703Z,59.47
2019-03-03T14:32:11.723Z,59.61
2019-03-03T14:34:40.751Z,59.62
2019-03-03T14:37:09.881Z,59.61
2019-03-03T14:39:39.461Z,59.59
2019-03-03T14:42:08.465Z,59.58
2019-03-03T14:44:37.329Z,59.58
2019-03-03T14:47:06.202Z,59.67
2019-03-03T14:49:35.037Z,59.77
2019-03-03T14:52:03.896Z,59.78
2019-03-03T14:54:32.811Z,59.77
2019-03-03T14:57:01.757Z,59.69
2019-03-03T14:59:30.687Z,59.68
2019-03-03T15:01:59.564Z,59.69
2019-03-03T15:04:28.797Z,59.68
2019-03-03T15:06:57.589Z,59.72
2019-03-03T15:09:26.965Z,59.74
2019-03-03T15:11:55.945Z,59.69
2019-03-03T15:14:24.986Z,59.70
2019-03-03T15:16:53.971Z,59.81
2019-03-03T15:19:22.884Z,59.81
2019-03-03T15:21:51.945Z,59.82
2019-03-03T15:24:20.785Z,59.75
2019-03-03T15:26:49.996Z,59.76
2019-03-03T15:29:18.968Z,59.76
2019-03-03T15:31:47.749Z,59.73
2019-03-03T15:34:16.621Z,59.75
2019-03-03T15:36:45.551Z,59.77
2019-03-03T15:39:14.458Z,59.79
2019-03-03T15:41:43.596Z,59.74
2019-03-03T15:44:12.591Z,59.74
2019-03-03T15:46:41.519Z,59.79
2019-03-03T15:49:10.630Z,59.80
2019-03-03T15:51:39.625Z,59.96
2019-03-03T15:54:08.648Z,60.04
2019-03-03T15:56:37.637Z,60.02
2019-03-03T15:59:06.637Z,60.15
2019-03-03T16:01:35.760Z,60.08
2019-03-03T16:04:04.633Z,60.10
2019-03-03T16:06:33.484Z,60.13
2019-03-03T16:09:04.231Z,60.15
2019-03-03T16:11:33.224Z,60.09
2019-03-03T16:14:02.293Z,60.01
2019-03-03T16:16:31.240Z,59.97
2019-03-03T16:19:00.083Z,60.04
2019-03-03T16:21:29.020Z,59.99
2019-03-03T16:23:58.062Z,60.06
2019-03-03T16:26:27.246Z,60.11
2019-03-03T16:28:56.363Z,60.13
2019-03-03T16:31:25.348Z,60.09
2019-03-03T16:33:54.326Z,60.05
2019-03-03T16:36:23.220Z,60.11
2019-03-03T16:38:52.451Z,60.08
2019-03-03T16:41:21.450Z,60.12
2019-03-03T16:43:50.479Z,60.27
2019-03-03T16:46:19.500Z,60.22
2019-03-03T16:48:48.547Z,60.33
2019-03-03T16:51:17.387Z,60.34
2019-03-03T16:53:46.219Z,60.51
2019-03-03T16:56:15.231Z,60.43
2019-03-03T16:58:44.236Z,60.34
2019-03-03T17:01:13.596Z,60.51
2019-03-03T17:03:42.488Z,60.50
2019-03-03T17:06:11.392Z,60.52
2019-03-03T17:08:40.398Z,60.56
2019-03-03T17:11:09.401Z,60.55
2019-03-03T17:13:38.630Z,60.56
2019-03-03T17:16:26.510Z,60.51
2019-03-03T17:18:55.612Z,60.59
2019-03-03T17:21:24.585Z,60.64
2019-03-03T17:23:53.373Z,60.63
2019-03-03T17:26:22.237Z,60.72
2019-03-03T17:28:51.160Z,60.80
2019-03-03T17:31:20.066Z,60.77
2019-03-03T17:34:12.942Z,60.68
2019-03-03T17:36:38.677Z,60.87
2019-03-03T17:39:07.578Z,60.96
2019-03-03T17:41:36.805Z,60.97
2019-03-03T17:44:24.894Z,61.00
2019-03-03T17:46:53.810Z,60.99
2019-03-03T17:49:22.901Z,61.20
2019-03-03T17:51:51.874Z,61.12
2019-03-03T17:54:20.786Z,61.02
2019-03-03T17:56:49.590Z,60.97
2019-03-03T17:59:18.672Z,60.99
2019-03-03T18:01:47.618Z,60.95
2019-03-03T18:04:16.646Z,61.07
2019-03-03T18:06:45.715Z,61.11
2019-03-03T18:09:14.648Z,61.12
2019-03-03T18:11:43.661Z,61.09
2019-03-03T18:14:12.801Z,61.16
2019-03-03T18:16:41.933Z,61.14
2019-03-03T18:19:10.966Z,61.13
2019-03-03T18:21:39.933Z,61.09
2019-03-03T18:24:09.010Z,61.08
2019-03-03T18:26:38.117Z,61.07
2019-03-03T18:29:07.069Z,61.08
2019-03-03T18:31:36.093Z,61.14
2019-03-03T18:34:05.150Z,61.15
2019-03-03T18:36:34.079Z,61.14
2019-03-03T18:39:03.347Z,61.16
2019-03-03T18:41:32.189Z,61.12
2019-03-03T18:44:01.864Z,61.06
2019-03-03T18:46:30.859Z,61.03
2019-03-03T18:48:59.865Z,60.96
2019-03-03T18:51:28.776Z,60.93
2019-03-03T18:53:57.692Z,60.96
2019-03-03T18:56:26.664Z,60.94
2019-03-03T18:58:55.802Z,60.91
2019-03-03T19:01:24.846Z,60.89
2019-03-03T19:03:53.785Z,60.93
2019-03-03T19:06:22.731Z,60.94
2019-03-03T19:08:51.781Z,60.96
2019-03-03T19:11:20.746Z,60.94
2019-03-03T19:13:49.754Z,60.93
2019-03-03T19:16:18.782Z,60.90
2019-03-03T19:19:08.588Z,60.88
2019-03-03T19:21:37.437Z,60.87
2019-03-03T19:24:06.365Z,60.82
2019-03-03T19:26:35.403Z,60.82
2019-03-03T19:29:04.745Z,60.80
2019-03-03T19:31:33.824Z,60.80
2019-03-03T19:34:04.223Z,60.78
2019-03-03T19:36:32.451Z,60.76
2019-03-03T19:39:01.409Z,60.74
2019-03-03T19:41:30.451Z,60.73
2019-03-03T19:43:59.439Z,60.69
2019-03-03T19:46:28.486Z,60.69
2019-03-03T19:48:57.552Z,60.69
2019-03-03T19:51:26.453Z,60.68
2019-03-03T19:53:55.324Z,60.67
2019-03-03T19:56:24.571Z,60.69
2019-03-03T19:58:53.585Z,60.70
2019-03-03T20:01:22.650Z,60.71
2019-03-03T20:03:51.656Z,60.70
2019-03-03T20:06:20.666Z,60.68
2019-03-03T20:08:49.593Z,60.67
2019-03-03T20:11:18.608Z,60.69
2019-03-03T20:13:47.461Z,60.68
2019-03-03T20:16:16.648Z,60.64
2019-03-03T20:18:45.473Z,60.60
2019-03-03T20:21:14.716Z,60.62
2019-03-03T20:23:43.729Z,60.63
2019-03-03T20:26:12.736Z,60.63
2019-03-03T20:28:41.741Z,60.61
2019-03-03T20:33:42.777Z,60.66
2019-03-03T20:36:11.868Z,60.62
2019-03-03T20:38:40.940Z,60.62
2019-03-03T20:41:09.957Z,60.62
2019-03-03T20:43:38.948Z,60.61
2019-03-03T20:46:07.947Z,60.56
2019-03-03T20:48:36.907Z,60.56
2019-03-03T20:51:05.937Z,60.54
2019-03-03T20:53:34.942Z,60.54
2019-03-03T20:56:03.905Z,60.53
2019-03-03T20:58:32.793Z,60.50
2019-03-03T21:01:01.796Z,60.52
2019-03-03T21:03:30.635Z,60.56
2019-03-03T21:05:59.539Z,60.54
2019-03-03T21:08:28.664Z,60.55
2019-03-03T21:10:57.783Z,60.54
2019-03-03T21:13:27.095Z,60.53
2019-03-03T21:15:57.954Z,60.58
2019-03-03T21:18:26.936Z,60.57
2019-03-03T21:20:56.083Z,60.54
2019-03-03T21:23:25.127Z,60.54
2019-03-03T21:25:54.338Z,60.54
2019-03-03T21:28:23.150Z,60.56
2019-03-03T21:30:52.105Z,60.57
2019-03-03T21:33:21.070Z,60.55
2019-03-03T21:35:50.196Z,60.52
2019-03-03T21:38:19.189Z,60.48
2019-03-03T21:40:48.115Z,60.45
2019-03-03T21:43:17.272Z,60.44
2019-03-03T21:45:46.238Z,60.45
2019-03-03T21:48:15.623Z,60.40
2019-03-03T21:50:44.645Z,60.44
2019-03-03T21:53:13.689Z,60.43
2019-03-03T21:55:42.666Z,60.48
2019-03-03T21:58:11.702Z,60.52
2019-03-03T22:00:40.821Z,60.62
2019-03-03T22:03:09.681Z,60.60
2019-03-03T22:05:38.698Z,60.63
2019-03-03T22:08:07.766Z,60.71
2019-03-03T22:10:36.776Z,60.69
2019-03-03T22:13:10.675Z,60.67
2019-03-03T22:15:39.665Z,60.69
2019-03-03T22:18:08.586Z,60.69
2019-03-03T22:20:37.510Z,60.67
2019-03-03T22:23:06.533Z,60.65
2019-03-03T22:25:35.370Z,60.64
2019-03-03T22:28:04.352Z,60.69
2019-03-03T22:30:33.350Z,60.71
2019-03-03T22:33:02.252Z,60.74
2019-03-03T22:35:31.232Z,60.67
2019-03-03T22:38:00.164Z,60.68
2019-03-03T22:40:29.354Z,60.65
2019-03-03T22:42:58.308Z,60.70
2019-03-03T22:45:27.211Z,60.64
2019-03-03T22:47:56.086Z,60.58
2019-03-03T22:50:25.031Z,60.61
2019-03-03T22:52:54.056Z,60.64
2019-03-03T22:55:23.053Z,60.56
2019-03-03T22:57:52.132Z,60.63
2019-03-03T23:00:48.299Z,60.68
2019-03-03T23:03:23.985Z,60.75
2019-03-03T23:06:33.418Z,60.79
2019-03-03T23:09:40.776Z,60.76
2019-03-03T23:12:42.345Z,60.86
2019-03-03T23:15:21.897Z,60.86
2019-03-03T23:18:45.599Z,60.84
2019-03-03T23:21:32.043Z,60.95
2019-03-03T23:24:57.486Z,60.88
2019-03-03T23:27:26.503Z,60.92
2019-03-03T23:30:01.275Z,60.92
2019-03-03T23:32:30.158Z,60.91
2019-03-03T23:34:58.876Z,60.95
2019-03-03T23:37:27.779Z,60.93
2019-03-03T23:39:56.792Z,60.98
2019-03-03T23:42:25.705Z,60.94
2019-03-03T23:44:54.637Z,60.93
2019-03-03T23:47:23.551Z,61.01
2019-03-03T23:49:52.973Z,60.97
2019-03-03T23:52:21.837Z,60.89
2019-03-03T23:54:50.864Z,60.94
2019-03-03T23:57:19.985Z,60.91
2019-03-03T23:59:48.929Z,60.95
